sensor_id;sensor_type;location;lat;lon;timestamp;temperature;humidity
65239;SHT30;51827;51.186;6.926;2023-09-07T00:00:10;21.12;71.72
65239;SHT30;51827;51.186;6.926;2023-09-07T00:01:10;21.12;71.65
65239;SHT30;51827;51.186;6.926;2023-09-07T00:02:10;21.13;71.63
65239;SHT30;51827;51.186;6.926;2023-09-07T00:03:13;21.09;71.61
65239;SHT30;51827;51.186;6.926;2023-09-07T00:04:13;21.07;71.61
65239;SHT30;51827;51.186;6.926;2023-09-07T00:05:13;21.07;71.63
65239;SHT30;51827;51.186;6.926;2023-09-07T00:06:13;21.05;71.67
65239;SHT30;51827;51.186;6.926;2023-09-07T00:07:14;21.05;71.68
65239;SHT30;51827;51.186;6.926;2023-09-07T00:08:14;21.05;71.62
65239;SHT30;51827;51.186;6.926;2023-09-07T00:09:15;21.07;71.61
65239;SHT30;51827;51.186;6.926;2023-09-07T00:10:15;21.06;71.59
65239;SHT30;51827;51.186;6.926;2023-09-07T00:11:15;21.02;71.57
65239;SHT30;51827;51.186;6.926;2023-09-07T00:12:15;21.02;71.63
65239;SHT30;51827;51.186;6.926;2023-09-07T00:13:16;20.99;71.73
65239;SHT30;51827;51.186;6.926;2023-09-07T00:14:16;20.95;71.73
65239;SHT30;51827;51.186;6.926;2023-09-07T00:15:16;20.95;71.71
65239;SHT30;51827;51.186;6.926;2023-09-07T00:16:17;20.96;71.71
65239;SHT30;51827;51.186;6.926;2023-09-07T00:17:17;20.96;71.69
65239;SHT30;51827;51.186;6.926;2023-09-07T00:18:17;20.95;71.70
65239;SHT30;51827;51.186;6.926;2023-09-07T00:19:17;20.95;71.69
65239;SHT30;51827;51.186;6.926;2023-09-07T00:20:18;20.93;71.65
65239;SHT30;51827;51.186;6.926;2023-09-07T00:21:18;20.98;71.57
65239;SHT30;51827;51.186;6.926;2023-09-07T00:22:18;20.93;71.65
65239;SHT30;51827;51.186;6.926;2023-09-07T00:23:18;20.91;71.70
65239;SHT30;51827;51.186;6.926;2023-09-07T00:24:19;20.91;71.74
65239;SHT30;51827;51.186;6.926;2023-09-07T00:25:19;20.89;71.71
65239;SHT30;51827;51.186;6.926;2023-09-07T00:26:19;20.89;71.78
65239;SHT30;51827;51.186;6.926;2023-09-07T00:27:19;20.89;71.74
65239;SHT30;51827;51.186;6.926;2023-09-07T00:28:20;20.88;71.74
65239;SHT30;51827;51.186;6.926;2023-09-07T00:29:20;20.88;71.81
65239;SHT30;51827;51.186;6.926;2023-09-07T00:30:20;20.86;71.73
65239;SHT30;51827;51.186;6.926;2023-09-07T00:31:20;20.86;71.76
65239;SHT30;51827;51.186;6.926;2023-09-07T00:32:21;20.91;71.65
65239;SHT30;51827;51.186;6.926;2023-09-07T00:33:21;20.91;71.61
65239;SHT30;51827;51.186;6.926;2023-09-07T00:34:21;20.93;71.62
65239;SHT30;51827;51.186;6.926;2023-09-07T00:35:21;20.93;71.81
65239;SHT30;51827;51.186;6.926;2023-09-07T00:36:22;20.93;71.84
65239;SHT30;51827;51.186;6.926;2023-09-07T00:37:22;20.95;71.81
65239;SHT30;51827;51.186;6.926;2023-09-07T00:38:22;20.93;71.76
65239;SHT30;51827;51.186;6.926;2023-09-07T00:39:22;20.93;71.66
65239;SHT30;51827;51.186;6.926;2023-09-07T00:40:23;20.89;71.67
65239;SHT30;51827;51.186;6.926;2023-09-07T00:41:23;20.91;71.62
65239;SHT30;51827;51.186;6.926;2023-09-07T00:42:23;20.91;71.63
65239;SHT30;51827;51.186;6.926;2023-09-07T00:43:24;20.91;71.63
65239;SHT30;51827;51.186;6.926;2023-09-07T00:44:24;20.91;71.60
65239;SHT30;51827;51.186;6.926;2023-09-07T00:45:24;20.89;71.58
65239;SHT30;51827;51.186;6.926;2023-09-07T00:46:25;20.89;71.53
65239;SHT30;51827;51.186;6.926;2023-09-07T00:47:25;20.89;71.49
65239;SHT30;51827;51.186;6.926;2023-09-07T00:48:26;20.85;71.54
65239;SHT30;51827;51.186;6.926;2023-09-07T00:49:26;20.88;71.42
65239;SHT30;51827;51.186;6.926;2023-09-07T00:50:27;20.86;71.45
65239;SHT30;51827;51.186;6.926;2023-09-07T00:51:27;20.83;71.46
65239;SHT30;51827;51.186;6.926;2023-09-07T00:52:27;20.85;71.43
65239;SHT30;51827;51.186;6.926;2023-09-07T00:53:27;20.85;71.37
65239;SHT30;51827;51.186;6.926;2023-09-07T00:54:28;20.82;71.40
65239;SHT30;51827;51.186;6.926;2023-09-07T00:55:28;20.79;71.47
65239;SHT30;51827;51.186;6.926;2023-09-07T00:56:29;20.79;71.45
65239;SHT30;51827;51.186;6.926;2023-09-07T00:57:29;20.82;71.42
65239;SHT30;51827;51.186;6.926;2023-09-07T00:58:30;20.79;71.45
65239;SHT30;51827;51.186;6.926;2023-09-07T00:59:32;20.79;71.43
65239;SHT30;51827;51.186;6.926;2023-09-07T01:00:33;20.76;71.43
65239;SHT30;51827;51.186;6.926;2023-09-07T01:01:35;20.76;71.43
65239;SHT30;51827;51.186;6.926;2023-09-07T01:02:35;20.75;71.41
65239;SHT30;51827;51.186;6.926;2023-09-07T01:03:35;20.72;71.42
65239;SHT30;51827;51.186;6.926;2023-09-07T01:04:36;20.71;71.40
65239;SHT30;51827;51.186;6.926;2023-09-07T01:06:01;20.71;71.44
65239;SHT30;51827;51.186;6.926;2023-09-07T01:07:18;20.68;71.40
65239;SHT30;51827;51.186;6.926;2023-09-07T01:08:24;20.69;71.35
65239;SHT30;51827;51.186;6.926;2023-09-07T01:09:28;20.67;71.41
65239;SHT30;51827;51.186;6.926;2023-09-07T01:10:30;20.68;71.33
65239;SHT30;51827;51.186;6.926;2023-09-07T01:11:36;20.67;71.32
65239;SHT30;51827;51.186;6.926;2023-09-07T01:12:36;20.67;71.34
65239;SHT30;51827;51.186;6.926;2023-09-07T01:13:37;20.64;71.35
65239;SHT30;51827;51.186;6.926;2023-09-07T01:14:37;20.68;71.26
65239;SHT30;51827;51.186;6.926;2023-09-07T01:15:37;20.65;71.31
65239;SHT30;51827;51.186;6.926;2023-09-07T01:16:38;20.64;71.35
65239;SHT30;51827;51.186;6.926;2023-09-07T01:17:38;20.67;71.39
65239;SHT30;51827;51.186;6.926;2023-09-07T01:18:39;20.64;71.38
65239;SHT30;51827;51.186;6.926;2023-09-07T01:19:39;20.64;71.40
65239;SHT30;51827;51.186;6.926;2023-09-07T01:20:41;20.64;71.39
65239;SHT30;51827;51.186;6.926;2023-09-07T01:21:42;20.62;71.34
65239;SHT30;51827;51.186;6.926;2023-09-07T01:22:43;20.64;71.33
65239;SHT30;51827;51.186;6.926;2023-09-07T01:23:44;20.62;71.33
65239;SHT30;51827;51.186;6.926;2023-09-07T01:24:47;20.65;71.26
65239;SHT30;51827;51.186;6.926;2023-09-07T01:25:47;20.62;71.22
65239;SHT30;51827;51.186;6.926;2023-09-07T01:26:48;20.59;71.24
65239;SHT30;51827;51.186;6.926;2023-09-07T01:27:49;20.62;71.15
65239;SHT30;51827;51.186;6.926;2023-09-07T01:28:50;20.62;71.16
65239;SHT30;51827;51.186;6.926;2023-09-07T01:29:51;20.59;71.15
65239;SHT30;51827;51.186;6.926;2023-09-07T01:30:52;20.56;71.11
65239;SHT30;51827;51.186;6.926;2023-09-07T01:31:52;20.58;71.06
65239;SHT30;51827;51.186;6.926;2023-09-07T01:32:52;20.56;71.04
65239;SHT30;51827;51.186;6.926;2023-09-07T01:33:53;20.55;71.08
65239;SHT30;51827;51.186;6.926;2023-09-07T01:34:55;20.53;71.14
65239;SHT30;51827;51.186;6.926;2023-09-07T01:35:57;20.55;71.09
65239;SHT30;51827;51.186;6.926;2023-09-07T01:36:57;20.52;71.07
65239;SHT30;51827;51.186;6.926;2023-09-07T01:37:57;20.52;71.08
65239;SHT30;51827;51.186;6.926;2023-09-07T01:38:57;20.56;71.00
65239;SHT30;51827;51.186;6.926;2023-09-07T01:39:58;20.53;71.00
65239;SHT30;51827;51.186;6.926;2023-09-07T01:40:58;20.53;70.97
65239;SHT30;51827;51.186;6.926;2023-09-07T01:41:58;20.51;70.92
65239;SHT30;51827;51.186;6.926;2023-09-07T01:42:58;20.51;70.95
65239;SHT30;51827;51.186;6.926;2023-09-07T01:43:59;20.52;70.94
65239;SHT30;51827;51.186;6.926;2023-09-07T01:44:59;20.51;70.90
65239;SHT30;51827;51.186;6.926;2023-09-07T01:45:59;20.51;70.88
65239;SHT30;51827;51.186;6.926;2023-09-07T01:46:59;20.49;70.89
65239;SHT30;51827;51.186;6.926;2023-09-07T01:48:00;20.48;70.90
65239;SHT30;51827;51.186;6.926;2023-09-07T01:49:00;20.45;70.89
65239;SHT30;51827;51.186;6.926;2023-09-07T01:50:00;20.47;70.85
65239;SHT30;51827;51.186;6.926;2023-09-07T01:51:00;20.48;70.86
65239;SHT30;51827;51.186;6.926;2023-09-07T01:52:01;20.45;70.91
65239;SHT30;51827;51.186;6.926;2023-09-07T01:53:02;20.48;70.89
65239;SHT30;51827;51.186;6.926;2023-09-07T01:54:02;20.47;70.92
65239;SHT30;51827;51.186;6.926;2023-09-07T01:55:03;20.41;70.99
65239;SHT30;51827;51.186;6.926;2023-09-07T01:56:03;20.41;70.93
65239;SHT30;51827;51.186;6.926;2023-09-07T01:57:04;20.39;70.93
65239;SHT30;51827;51.186;6.926;2023-09-07T01:58:04;20.38;70.97
65239;SHT30;51827;51.186;6.926;2023-09-07T01:59:04;20.37;70.95
65239;SHT30;51827;51.186;6.926;2023-09-07T02:00:05;20.38;70.92
65239;SHT30;51827;51.186;6.926;2023-09-07T02:01:05;20.37;70.86
65239;SHT30;51827;51.186;6.926;2023-09-07T02:02:06;20.39;70.84
65239;SHT30;51827;51.186;6.926;2023-09-07T02:03:06;20.37;70.90
65239;SHT30;51827;51.186;6.926;2023-09-07T02:04:06;20.35;70.92
65239;SHT30;51827;51.186;6.926;2023-09-07T02:05:07;20.35;70.87
65239;SHT30;51827;51.186;6.926;2023-09-07T02:06:07;20.34;70.94
65239;SHT30;51827;51.186;6.926;2023-09-07T02:07:08;20.32;70.94
65239;SHT30;51827;51.186;6.926;2023-09-07T02:08:08;20.37;70.89
65239;SHT30;51827;51.186;6.926;2023-09-07T02:09:08;20.31;70.91
65239;SHT30;51827;51.186;6.926;2023-09-07T02:10:09;20.29;70.90
65239;SHT30;51827;51.186;6.926;2023-09-07T02:11:10;20.35;70.89
65239;SHT30;51827;51.186;6.926;2023-09-07T02:12:10;20.31;70.84
65239;SHT30;51827;51.186;6.926;2023-09-07T02:13:10;20.34;70.79
65239;SHT30;51827;51.186;6.926;2023-09-07T02:14:10;20.31;70.84
65239;SHT30;51827;51.186;6.926;2023-09-07T02:15:10;20.31;70.80
65239;SHT30;51827;51.186;6.926;2023-09-07T02:16:11;20.32;70.80
65239;SHT30;51827;51.186;6.926;2023-09-07T02:17:11;20.27;70.89
65239;SHT30;51827;51.186;6.926;2023-09-07T02:18:11;20.27;70.91
65239;SHT30;51827;51.186;6.926;2023-09-07T02:19:11;20.24;70.96
65239;SHT30;51827;51.186;6.926;2023-09-07T02:20:12;20.27;70.95
65239;SHT30;51827;51.186;6.926;2023-09-07T02:21:12;20.21;70.88
65239;SHT30;51827;51.186;6.926;2023-09-07T02:22:13;20.22;70.91
65239;SHT30;51827;51.186;6.926;2023-09-07T02:23:13;20.21;70.84
65239;SHT30;51827;51.186;6.926;2023-09-07T02:24:14;20.18;70.89
65239;SHT30;51827;51.186;6.926;2023-09-07T02:25:14;20.20;70.86
65239;SHT30;51827;51.186;6.926;2023-09-07T02:26:14;20.22;70.83
65239;SHT30;51827;51.186;6.926;2023-09-07T02:27:15;20.17;70.88
65239;SHT30;51827;51.186;6.926;2023-09-07T02:28:16;20.17;70.82
65239;SHT30;51827;51.186;6.926;2023-09-07T02:29:16;20.20;70.79
65239;SHT30;51827;51.186;6.926;2023-09-07T02:30:16;20.18;70.82
65239;SHT30;51827;51.186;6.926;2023-09-07T02:31:16;20.15;70.82
65239;SHT30;51827;51.186;6.926;2023-09-07T02:32:17;20.15;70.83
65239;SHT30;51827;51.186;6.926;2023-09-07T02:33:17;20.14;70.85
65239;SHT30;51827;51.186;6.926;2023-09-07T02:34:17;20.13;70.80
65239;SHT30;51827;51.186;6.926;2023-09-07T02:35:17;20.14;70.83
65239;SHT30;51827;51.186;6.926;2023-09-07T02:36:18;20.13;70.76
65239;SHT30;51827;51.186;6.926;2023-09-07T02:37:18;20.15;70.80
65239;SHT30;51827;51.186;6.926;2023-09-07T02:38:18;20.13;70.78
65239;SHT30;51827;51.186;6.926;2023-09-07T02:39:18;20.13;70.79
65239;SHT30;51827;51.186;6.926;2023-09-07T02:40:19;20.11;70.80
65239;SHT30;51827;51.186;6.926;2023-09-07T02:41:19;20.14;70.75
65239;SHT30;51827;51.186;6.926;2023-09-07T02:42:19;20.13;70.72
65239;SHT30;51827;51.186;6.926;2023-09-07T02:43:19;20.13;70.73
65239;SHT30;51827;51.186;6.926;2023-09-07T02:44:20;20.08;70.73
65239;SHT30;51827;51.186;6.926;2023-09-07T02:45:21;20.11;70.72
65239;SHT30;51827;51.186;6.926;2023-09-07T02:46:21;20.08;70.73
65239;SHT30;51827;51.186;6.926;2023-09-07T02:47:21;20.11;70.68
65239;SHT30;51827;51.186;6.926;2023-09-07T02:48:21;20.08;70.64
65239;SHT30;51827;51.186;6.926;2023-09-07T02:49:22;20.10;70.70
65239;SHT30;51827;51.186;6.926;2023-09-07T02:50:22;20.08;70.67
65239;SHT30;51827;51.186;6.926;2023-09-07T02:51:22;20.07;70.74
65239;SHT30;51827;51.186;6.926;2023-09-07T02:52:23;20.05;70.75
65239;SHT30;51827;51.186;6.926;2023-09-07T02:53:23;20.05;70.71
65239;SHT30;51827;51.186;6.926;2023-09-07T02:54:24;20.04;70.73
65239;SHT30;51827;51.186;6.926;2023-09-07T02:55:24;20.04;70.73
65239;SHT30;51827;51.186;6.926;2023-09-07T02:56:24;20.03;70.83
65239;SHT30;51827;51.186;6.926;2023-09-07T02:57:24;20.01;70.79
65239;SHT30;51827;51.186;6.926;2023-09-07T02:58:25;19.98;70.82
65239;SHT30;51827;51.186;6.926;2023-09-07T02:59:25;19.98;70.84
65239;SHT30;51827;51.186;6.926;2023-09-07T03:00:26;19.97;70.90
65239;SHT30;51827;51.186;6.926;2023-09-07T03:01:26;19.98;70.89
65239;SHT30;51827;51.186;6.926;2023-09-07T03:02:27;20.00;70.84
65239;SHT30;51827;51.186;6.926;2023-09-07T03:03:27;19.98;70.81
65239;SHT30;51827;51.186;6.926;2023-09-07T03:04:27;19.97;70.83
65239;SHT30;51827;51.186;6.926;2023-09-07T03:05:28;19.97;70.79
65239;SHT30;51827;51.186;6.926;2023-09-07T03:06:28;19.97;70.76
65239;SHT30;51827;51.186;6.926;2023-09-07T03:07:33;20.00;70.77
65239;SHT30;51827;51.186;6.926;2023-09-07T03:08:33;19.97;70.77
65239;SHT30;51827;51.186;6.926;2023-09-07T03:09:34;19.97;70.76
65239;SHT30;51827;51.186;6.926;2023-09-07T03:10:38;19.97;70.72
65239;SHT30;51827;51.186;6.926;2023-09-07T03:11:38;19.95;70.69
65239;SHT30;51827;51.186;6.926;2023-09-07T03:12:38;19.97;70.70
65239;SHT30;51827;51.186;6.926;2023-09-07T03:13:39;19.94;70.68
65239;SHT30;51827;51.186;6.926;2023-09-07T03:14:43;19.95;70.67
65239;SHT30;51827;51.186;6.926;2023-09-07T03:15:43;19.93;70.68
65239;SHT30;51827;51.186;6.926;2023-09-07T03:16:43;19.93;70.74
65239;SHT30;51827;51.186;6.926;2023-09-07T03:17:43;19.94;70.69
65239;SHT30;51827;51.186;6.926;2023-09-07T03:18:43;19.91;70.75
65239;SHT30;51827;51.186;6.926;2023-09-07T03:19:44;19.87;70.78
65239;SHT30;51827;51.186;6.926;2023-09-07T03:20:44;19.85;70.76
65239;SHT30;51827;51.186;6.926;2023-09-07T03:21:44;19.83;70.77
65239;SHT30;51827;51.186;6.926;2023-09-07T03:22:45;19.84;70.80
65239;SHT30;51827;51.186;6.926;2023-09-07T03:23:45;19.87;70.75
65239;SHT30;51827;51.186;6.926;2023-09-07T03:24:45;19.87;70.72
65239;SHT30;51827;51.186;6.926;2023-09-07T03:25:46;19.87;70.70
65239;SHT30;51827;51.186;6.926;2023-09-07T03:26:46;19.81;70.76
65239;SHT30;51827;51.186;6.926;2023-09-07T03:27:46;19.83;70.87
65239;SHT30;51827;51.186;6.926;2023-09-07T03:28:46;19.81;70.89
65239;SHT30;51827;51.186;6.926;2023-09-07T03:29:49;19.80;70.97
65239;SHT30;51827;51.186;6.926;2023-09-07T03:30:50;19.80;70.97
65239;SHT30;51827;51.186;6.926;2023-09-07T03:31:50;19.78;70.90
65239;SHT30;51827;51.186;6.926;2023-09-07T03:32:51;19.74;70.95
65239;SHT30;51827;51.186;6.926;2023-09-07T03:33:51;19.75;70.95
65239;SHT30;51827;51.186;6.926;2023-09-07T03:34:51;19.75;70.90
65239;SHT30;51827;51.186;6.926;2023-09-07T03:35:51;19.73;70.82
65239;SHT30;51827;51.186;6.926;2023-09-07T03:36:52;19.73;70.90
65239;SHT30;51827;51.186;6.926;2023-09-07T03:37:52;19.74;70.87
65239;SHT30;51827;51.186;6.926;2023-09-07T03:38:52;19.69;70.93
65239;SHT30;51827;51.186;6.926;2023-09-07T03:39:52;19.73;70.86
65239;SHT30;51827;51.186;6.926;2023-09-07T03:40:53;19.67;70.95
65239;SHT30;51827;51.186;6.926;2023-09-07T03:41:53;19.70;70.86
65239;SHT30;51827;51.186;6.926;2023-09-07T03:42:53;19.69;70.85
65239;SHT30;51827;51.186;6.926;2023-09-07T03:43:53;19.70;70.82
65239;SHT30;51827;51.186;6.926;2023-09-07T03:44:54;19.71;70.80
65239;SHT30;51827;51.186;6.926;2023-09-07T03:45:54;19.69;70.79
65239;SHT30;51827;51.186;6.926;2023-09-07T03:46:54;19.64;70.88
65239;SHT30;51827;51.186;6.926;2023-09-07T03:47:54;19.66;70.88
65239;SHT30;51827;51.186;6.926;2023-09-07T03:48:55;19.62;70.91
65239;SHT30;51827;51.186;6.926;2023-09-07T03:49:55;19.64;70.88
65239;SHT30;51827;51.186;6.926;2023-09-07T03:50:56;19.59;70.95
65239;SHT30;51827;51.186;6.926;2023-09-07T03:51:56;19.59;70.89
65239;SHT30;51827;51.186;6.926;2023-09-07T03:52:56;19.59;70.95
65239;SHT30;51827;51.186;6.926;2023-09-07T03:53:56;19.53;70.90
65239;SHT30;51827;51.186;6.926;2023-09-07T03:54:57;19.57;71.00
65239;SHT30;51827;51.186;6.926;2023-09-07T03:55:58;19.57;70.88
65239;SHT30;51827;51.186;6.926;2023-09-07T03:56:58;19.63;70.75
65239;SHT30;51827;51.186;6.926;2023-09-07T03:57:58;19.57;71.00
65239;SHT30;51827;51.186;6.926;2023-09-07T03:58:58;19.63;70.84
65239;SHT30;51827;51.186;6.926;2023-09-07T04:00:00;19.64;70.74
65239;SHT30;51827;51.186;6.926;2023-09-07T04:01:00;19.66;70.66
65239;SHT30;51827;51.186;6.926;2023-09-07T04:02:00;19.71;70.51
65239;SHT30;51827;51.186;6.926;2023-09-07T04:03:00;19.66;70.47
65239;SHT30;51827;51.186;6.926;2023-09-07T04:04:00;19.70;70.55
65239;SHT30;51827;51.186;6.926;2023-09-07T04:05:01;19.71;70.52
65239;SHT30;51827;51.186;6.926;2023-09-07T04:06:01;19.67;70.61
65239;SHT30;51827;51.186;6.926;2023-09-07T04:07:01;19.67;70.65
65239;SHT30;51827;51.186;6.926;2023-09-07T04:08:02;19.74;70.46
65239;SHT30;51827;51.186;6.926;2023-09-07T04:09:02;19.83;70.61
65239;SHT30;51827;51.186;6.926;2023-09-07T04:10:02;19.91;70.96
65239;SHT30;51827;51.186;6.926;2023-09-07T04:11:04;19.98;70.77
65239;SHT30;51827;51.186;6.926;2023-09-07T04:12:05;20.07;70.55
65239;SHT30;51827;51.186;6.926;2023-09-07T04:13:05;20.14;70.34
65239;SHT30;51827;51.186;6.926;2023-09-07T04:14:05;20.21;70.08
65239;SHT30;51827;51.186;6.926;2023-09-07T04:15:06;20.31;69.81
65239;SHT30;51827;51.186;6.926;2023-09-07T04:16:08;20.39;69.57
65239;SHT30;51827;51.186;6.926;2023-09-07T04:17:08;20.45;69.39
65239;SHT30;51827;51.186;6.926;2023-09-07T04:18:09;20.51;69.18
65239;SHT30;51827;51.186;6.926;2023-09-07T04:19:10;20.58;68.95
65239;SHT30;51827;51.186;6.926;2023-09-07T04:20:10;20.64;68.78
65239;SHT30;51827;51.186;6.926;2023-09-07T04:21:11;20.68;68.59
65239;SHT30;51827;51.186;6.926;2023-09-07T04:22:11;20.76;68.44
65239;SHT30;51827;51.186;6.926;2023-09-07T04:23:11;20.79;68.28
65239;SHT30;51827;51.186;6.926;2023-09-07T04:24:12;20.83;68.13
65239;SHT30;51827;51.186;6.926;2023-09-07T04:25:12;20.88;67.96
65239;SHT30;51827;51.186;6.926;2023-09-07T04:26:12;20.93;67.81
65239;SHT30;51827;51.186;6.926;2023-09-07T04:27:12;20.93;67.73
65239;SHT30;51827;51.186;6.926;2023-09-07T04:28:13;20.98;67.62
65239;SHT30;51827;51.186;6.926;2023-09-07T04:29:13;21.00;67.49
65239;SHT30;51827;51.186;6.926;2023-09-07T04:30:13;21.03;67.37
65239;SHT30;51827;51.186;6.926;2023-09-07T04:31:13;21.09;67.23
65239;SHT30;51827;51.186;6.926;2023-09-07T04:32:14;21.10;67.15
65239;SHT30;51827;51.186;6.926;2023-09-07T04:33:14;21.10;67.02
65239;SHT30;51827;51.186;6.926;2023-09-07T04:34:14;21.15;66.91
65239;SHT30;51827;51.186;6.926;2023-09-07T04:35:14;21.16;66.85
65239;SHT30;51827;51.186;6.926;2023-09-07T04:36:15;21.15;66.82
65239;SHT30;51827;51.186;6.926;2023-09-07T04:37:15;21.20;66.77
65239;SHT30;51827;51.186;6.926;2023-09-07T04:38:16;21.20;66.71
65239;SHT30;51827;51.186;6.926;2023-09-07T04:39:17;21.22;66.65
65239;SHT30;51827;51.186;6.926;2023-09-07T04:40:17;21.23;66.61
65239;SHT30;51827;51.186;6.926;2023-09-07T04:41:17;21.25;66.61
65239;SHT30;51827;51.186;6.926;2023-09-07T04:42:18;21.26;66.53
65239;SHT30;51827;51.186;6.926;2023-09-07T04:43:18;21.26;66.43
65239;SHT30;51827;51.186;6.926;2023-09-07T04:44:18;21.30;66.42
65239;SHT30;51827;51.186;6.926;2023-09-07T04:45:18;21.30;66.38
65239;SHT30;51827;51.186;6.926;2023-09-07T04:46:21;21.30;66.34
65239;SHT30;51827;51.186;6.926;2023-09-07T04:47:22;21.30;66.27
65239;SHT30;51827;51.186;6.926;2023-09-07T04:48:22;21.35;66.25
65239;SHT30;51827;51.186;6.926;2023-09-07T04:49:25;21.35;66.17
65239;SHT30;51827;51.186;6.926;2023-09-07T04:50:25;21.37;66.18
65239;SHT30;51827;51.186;6.926;2023-09-07T04:51:25;21.39;66.10
65239;SHT30;51827;51.186;6.926;2023-09-07T04:52:26;21.36;66.07
65239;SHT30;51827;51.186;6.926;2023-09-07T04:53:31;21.40;66.05
65239;SHT30;51827;51.186;6.926;2023-09-07T04:54:31;21.42;66.01
65239;SHT30;51827;51.186;6.926;2023-09-07T04:55:37;21.40;66.03
65239;SHT30;51827;51.186;6.926;2023-09-07T04:56:37;21.43;65.99
65239;SHT30;51827;51.186;6.926;2023-09-07T04:57:37;21.40;65.97
65239;SHT30;51827;51.186;6.926;2023-09-07T04:58:38;21.43;65.98
65239;SHT30;51827;51.186;6.926;2023-09-07T04:59:38;21.43;65.97
65239;SHT30;51827;51.186;6.926;2023-09-07T05:00:38;21.47;65.97
65239;SHT30;51827;51.186;6.926;2023-09-07T05:01:38;21.47;65.93
65239;SHT30;51827;51.186;6.926;2023-09-07T05:02:39;21.47;65.96
65239;SHT30;51827;51.186;6.926;2023-09-07T05:03:39;21.47;65.95
65239;SHT30;51827;51.186;6.926;2023-09-07T05:04:39;21.49;65.92
65239;SHT30;51827;51.186;6.926;2023-09-07T05:05:41;21.49;65.89
65239;SHT30;51827;51.186;6.926;2023-09-07T05:06:41;21.50;65.87
65239;SHT30;51827;51.186;6.926;2023-09-07T05:07:41;21.49;65.85
65239;SHT30;51827;51.186;6.926;2023-09-07T05:08:41;21.53;65.85
65239;SHT30;51827;51.186;6.926;2023-09-07T05:09:42;21.50;65.89
65239;SHT30;51827;51.186;6.926;2023-09-07T05:10:42;21.53;65.82
65239;SHT30;51827;51.186;6.926;2023-09-07T05:11:43;21.56;65.78
65239;SHT30;51827;51.186;6.926;2023-09-07T05:12:43;21.54;65.77
65239;SHT30;51827;51.186;6.926;2023-09-07T05:13:43;21.57;65.83
65239;SHT30;51827;51.186;6.926;2023-09-07T05:14:43;21.54;65.81
65239;SHT30;51827;51.186;6.926;2023-09-07T05:15:50;21.54;65.81
65239;SHT30;51827;51.186;6.926;2023-09-07T05:16:50;21.56;65.82
65239;SHT30;51827;51.186;6.926;2023-09-07T05:17:51;21.58;65.81
65239;SHT30;51827;51.186;6.926;2023-09-07T05:18:51;21.58;65.77
65239;SHT30;51827;51.186;6.926;2023-09-07T05:19:51;21.57;65.75
65239;SHT30;51827;51.186;6.926;2023-09-07T05:20:51;21.57;65.75
65239;SHT30;51827;51.186;6.926;2023-09-07T05:21:52;21.58;65.71
65239;SHT30;51827;51.186;6.926;2023-09-07T05:22:52;21.57;65.75
65239;SHT30;51827;51.186;6.926;2023-09-07T05:23:53;21.60;65.71
65239;SHT30;51827;51.186;6.926;2023-09-07T05:24:53;21.60;65.72
65239;SHT30;51827;51.186;6.926;2023-09-07T05:25:54;21.61;65.71
65239;SHT30;51827;51.186;6.926;2023-09-07T05:26:54;21.63;65.73
65239;SHT30;51827;51.186;6.926;2023-09-07T05:27:55;21.61;65.69
65239;SHT30;51827;51.186;6.926;2023-09-07T05:28:55;21.61;65.70
65239;SHT30;51827;51.186;6.926;2023-09-07T05:29:55;21.61;65.70
65239;SHT30;51827;51.186;6.926;2023-09-07T05:30:55;21.63;65.71
65239;SHT30;51827;51.186;6.926;2023-09-07T05:31:56;21.63;65.70
65239;SHT30;51827;51.186;6.926;2023-09-07T05:32:56;21.64;65.65
65239;SHT30;51827;51.186;6.926;2023-09-07T05:33:56;21.63;65.68
65239;SHT30;51827;51.186;6.926;2023-09-07T05:34:56;21.63;65.67
65239;SHT30;51827;51.186;6.926;2023-09-07T05:35:56;21.66;65.67
65239;SHT30;51827;51.186;6.926;2023-09-07T05:36:57;21.69;65.68
65239;SHT30;51827;51.186;6.926;2023-09-07T05:37:57;21.66;65.69
65239;SHT30;51827;51.186;6.926;2023-09-07T05:38:58;21.70;65.69
65239;SHT30;51827;51.186;6.926;2023-09-07T05:39:58;21.67;65.65
65239;SHT30;51827;51.186;6.926;2023-09-07T05:40:58;21.69;65.67
65239;SHT30;51827;51.186;6.926;2023-09-07T05:41:58;21.69;65.63
65239;SHT30;51827;51.186;6.926;2023-09-07T05:42:59;21.69;65.70
65239;SHT30;51827;51.186;6.926;2023-09-07T05:43:59;21.71;65.65
65239;SHT30;51827;51.186;6.926;2023-09-07T05:44:59;21.73;65.64
65239;SHT30;51827;51.186;6.926;2023-09-07T05:45:59;21.69;65.65
65239;SHT30;51827;51.186;6.926;2023-09-07T05:47:00;21.71;65.62
65239;SHT30;51827;51.186;6.926;2023-09-07T05:48:00;21.71;65.62
65239;SHT30;51827;51.186;6.926;2023-09-07T05:49:00;21.71;65.61
65239;SHT30;51827;51.186;6.926;2023-09-07T05:50:00;21.71;65.60
65239;SHT30;51827;51.186;6.926;2023-09-07T05:51:01;21.71;65.57
65239;SHT30;51827;51.186;6.926;2023-09-07T05:52:02;21.73;65.60
65239;SHT30;51827;51.186;6.926;2023-09-07T05:53:02;21.71;65.57
65239;SHT30;51827;51.186;6.926;2023-09-07T05:54:02;21.71;65.58
65239;SHT30;51827;51.186;6.926;2023-09-07T05:55:03;21.71;65.59
65239;SHT30;51827;51.186;6.926;2023-09-07T05:56:03;21.74;65.60
65239;SHT30;51827;51.186;6.926;2023-09-07T05:57:04;21.76;65.58
65239;SHT30;51827;51.186;6.926;2023-09-07T05:58:06;21.70;65.58
65239;SHT30;51827;51.186;6.926;2023-09-07T05:59:06;21.74;65.55
65239;SHT30;51827;51.186;6.926;2023-09-07T06:00:07;21.74;65.58
65239;SHT30;51827;51.186;6.926;2023-09-07T06:01:07;21.77;65.56
65239;SHT30;51827;51.186;6.926;2023-09-07T06:02:08;21.76;65.58
65239;SHT30;51827;51.186;6.926;2023-09-07T06:03:08;21.78;65.59
65239;SHT30;51827;51.186;6.926;2023-09-07T06:04:08;21.77;65.55
65239;SHT30;51827;51.186;6.926;2023-09-07T06:05:09;21.77;65.61
65239;SHT30;51827;51.186;6.926;2023-09-07T06:06:09;21.77;65.57
65239;SHT30;51827;51.186;6.926;2023-09-07T06:07:09;21.77;65.55
65239;SHT30;51827;51.186;6.926;2023-09-07T06:08:10;21.77;65.57
65239;SHT30;51827;51.186;6.926;2023-09-07T06:09:10;21.77;65.55
65239;SHT30;51827;51.186;6.926;2023-09-07T06:10:10;21.76;65.55
65239;SHT30;51827;51.186;6.926;2023-09-07T06:11:10;21.78;65.51
65239;SHT30;51827;51.186;6.926;2023-09-07T06:12:11;21.80;65.49
65239;SHT30;51827;51.186;6.926;2023-09-07T06:13:11;21.78;65.53
65239;SHT30;51827;51.186;6.926;2023-09-07T06:14:11;21.78;65.51
65239;SHT30;51827;51.186;6.926;2023-09-07T06:15:11;21.80;65.53
65239;SHT30;51827;51.186;6.926;2023-09-07T06:16:12;21.78;65.49
65239;SHT30;51827;51.186;6.926;2023-09-07T06:17:12;21.78;65.52
65239;SHT30;51827;51.186;6.926;2023-09-07T06:18:12;21.81;65.51
65239;SHT30;51827;51.186;6.926;2023-09-07T06:19:13;21.80;65.51
65239;SHT30;51827;51.186;6.926;2023-09-07T06:20:13;21.81;65.49
65239;SHT30;51827;51.186;6.926;2023-09-07T06:21:13;21.81;65.49
65239;SHT30;51827;51.186;6.926;2023-09-07T06:22:13;21.81;65.49